Time;durP1;ratioP1;P1;durP2;ratioP2;P2;SDS_P1;SDS_P2;PMS_P1;PMS_P2;Temp;Humidity;BMP_temperature;BMP_pressure;BME280_temperature;BME280_humidity;BME280_pressure;Samples;Min_cycle;Max_cycle;Signal;HPM_P1;HPM_P2
2021/08/21 00:00:00;;;;;;;8.82;4.35;;;;;;;;;;6207500;23;20171;-92
2021/08/21 00:03:08;;;;;;;9.00;4.60;;;;;;;;;;6209253;23;20622;-90
2021/08/21 00:06:13;;;;;;;8.75;4.53;;;;;;;;;;6209493;23;20171;-90
2021/08/21 00:09:18;;;;;;;7.13;4.38;;;;;;;;;;6207200;23;20661;-90
2021/08/21 00:12:22;;;;;;;14.02;4.85;;;;;;;;;;6207349;23;20631;-91
2021/08/21 00:15:28;;;;;;;11.32;4.75;;;;;;;;;;6206289;23;20655;-91
2021/08/21 00:18:35;;;;;;;10.93;4.82;;;;;;;;;;6206667;23;20279;-90
2021/08/21 00:21:40;;;;;;;12.02;5.18;;;;;;;;;;6206731;23;20168;-91
2021/08/21 00:24:45;;;;;;;11.27;5.13;;;;;;;;;;6205751;23;20307;-90
2021/08/21 00:27:50;;;;;;;10.02;4.90;;;;;;;;;;6205607;23;20174;-90
2021/08/21 00:30:54;;;;;;;14.13;5.22;;;;;;;;;;6205671;23;20171;-93
2021/08/21 00:34:02;;;;;;;10.48;5.45;;;;;;;;;;6211761;23;20167;-90
2021/08/21 00:37:07;;;;;;;13.25;5.80;;;;;;;;;;6219196;23;20235;-90
2021/08/21 00:40:14;;;;;;;12.57;6.50;;;;;;;;;;6208163;23;20171;-90
2021/08/21 00:43:20;;;;;;;13.95;6.30;;;;;;;;;;6208954;23;20175;-90
2021/08/21 00:46:25;;;;;;;11.52;5.72;;;;;;;;;;6207852;23;20171;-91
2021/08/21 00:49:32;;;;;;;11.15;5.35;;;;;;;;;;6207079;23;20167;-91
2021/08/21 00:52:38;;;;;;;16.73;5.95;;;;;;;;;;6207280;23;20175;-92
2021/08/21 00:55:48;;;;;;;14.05;6.05;;;;;;;;;;6208081;23;20167;-91
2021/08/21 00:58:53;;;;;;;13.50;5.60;;;;;;;;;;6208468;23;20180;-90
2021/08/21 01:01:59;;;;;;;13.52;5.88;;;;;;;;;;6205797;23;20167;-90
2021/08/21 01:05:08;;;;;;;10.32;5.90;;;;;;;;;;6207271;23;20667;-90
2021/08/21 01:08:13;;;;;;;9.43;5.15;;;;;;;;;;6207772;23;20175;-89
2021/08/21 01:11:33;;;;;;;13.32;5.93;;;;;;;;;;6209678;23;20167;-92
2021/08/21 01:14:39;;;;;;;11.15;5.43;;;;;;;;;;6209123;23;20267;-91
2021/08/21 01:17:46;;;;;;;11.65;5.68;;;;;;;;;;6207059;23;20193;-91
2021/08/21 01:20:52;;;;;;;11.15;5.95;;;;;;;;;;6208198;23;20163;-90
2021/08/21 01:24:01;;;;;;;11.90;5.50;;;;;;;;;;6207443;23;20175;-90
2021/08/21 01:27:15;;;;;;;13.00;5.72;;;;;;;;;;6207242;23;20499;-92
2021/08/21 01:30:34;;;;;;;12.10;6.10;;;;;;;;;;6207576;23;20727;-91
2021/08/21 01:33:47;;;;;;;10.57;5.53;;;;;;;;;;6204995;23;20275;-90
2021/08/21 01:36:53;;;;;;;9.57;5.53;;;;;;;;;;6206935;23;20198;-90
2021/08/21 01:40:34;;;;;;;16.27;5.60;;;;;;;;;;6224432;23;20306;-89
2021/08/21 01:43:47;;;;;;;12.90;4.93;;;;;;;;;;6206479;23;20167;-89
2021/08/21 01:46:52;;;;;;;7.72;4.80;;;;;;;;;;6205444;23;20167;-91
2021/08/21 01:50:00;;;;;;;10.27;5.15;;;;;;;;;;6206990;23;20175;-89
2021/08/21 01:53:05;;;;;;;8.65;4.82;;;;;;;;;;6206810;23;20171;-92
2021/08/21 01:56:15;;;;;;;11.75;5.50;;;;;;;;;;6205497;23;20519;-90
2021/08/21 01:59:34;;;;;;;9.85;5.18;;;;;;;;;;6206209;23;20171;-89
2021/08/21 02:02:50;;;;;;;13.48;4.78;;;;;;;;;;6209122;23;20541;-90
2021/08/21 02:06:00;;;;;;;10.90;4.78;;;;;;;;;;6208321;23;20291;-90
2021/08/21 02:09:05;;;;;;;7.85;4.72;;;;;;;;;;6207953;23;20171;-91
2021/08/21 02:12:12;;;;;;;8.88;5.15;;;;;;;;;;6206915;23;20167;-91
2021/08/21 02:15:22;;;;;;;10.10;4.90;;;;;;;;;;6207735;23;20286;-89
2021/08/21 02:18:34;;;;;;;8.85;5.15;;;;;;;;;;6208561;23;20171;-91
2021/08/21 02:21:47;;;;;;;8.55;5.05;;;;;;;;;;6207727;23;20163;-90
2021/08/21 02:24:53;;;;;;;9.07;4.90;;;;;;;;;;6207780;23;20170;-91
2021/08/21 02:28:05;;;;;;;7.82;5.15;;;;;;;;;;6207050;23;20306;-91
2021/08/21 02:31:12;;;;;;;8.30;4.88;;;;;;;;;;6207055;23;20171;-90
2021/08/21 02:34:17;;;;;;;7.68;4.60;;;;;;;;;;6208252;23;20327;-90
2021/08/21 02:37:22;;;;;;;14.23;5.00;;;;;;;;;;6207734;23;20198;-91
2021/08/21 02:40:28;;;;;;;12.98;5.15;;;;;;;;;;6209363;23;20178;-90
2021/08/21 02:43:33;;;;;;;10.20;4.72;;;;;;;;;;6209680;23;20615;-91
2021/08/21 02:46:39;;;;;;;7.55;4.28;;;;;;;;;;6208865;23;20781;-90
2021/08/21 02:49:44;;;;;;;8.57;4.70;;;;;;;;;;6209443;23;20167;-89
2021/08/21 02:52:51;;;;;;;7.28;4.72;;;;;;;;;;6210125;23;20175;-91
2021/08/21 02:55:57;;;;;;;8.40;4.70;;;;;;;;;;6208963;23;20262;-89
2021/08/21 02:59:02;;;;;;;9.68;5.22;;;;;;;;;;6209256;23;20266;-91
2021/08/21 03:02:08;;;;;;;11.63;4.82;;;;;;;;;;6209819;23;20166;-92
2021/08/21 03:05:18;;;;;;;8.32;4.43;;;;;;;;;;6207519;23;20179;-91
2021/08/21 03:08:23;;;;;;;11.35;5.65;;;;;;;;;;6208573;23;20240;-90
2021/08/21 03:11:30;;;;;;;7.25;4.90;;;;;;;;;;6208397;23;20167;-91
2021/08/21 03:15:08;;;;;;;12.32;4.75;;;;;;;;;;6227487;23;20167;-89
2021/08/21 03:18:15;;;;;;;6.65;4.35;;;;;;;;;;6208060;23;20489;-92
2021/08/21 03:21:23;;;;;;;8.43;4.28;;;;;;;;;;6210669;23;20166;-90
2021/08/21 03:24:30;;;;;;;7.55;4.88;;;;;;;;;;6208490;23;20186;-91
2021/08/21 03:27:35;;;;;;;8.77;4.85;;;;;;;;;;6207962;23;20163;-90
2021/08/21 03:30:40;;;;;;;7.97;4.75;;;;;;;;;;6207461;23;20179;-90
2021/08/21 03:33:59;;;;;;;9.57;5.03;;;;;;;;;;6207430;23;20167;-90
2021/08/21 03:37:04;;;;;;;10.30;6.22;;;;;;;;;;6207972;23;20277;-90
2021/08/21 03:40:12;;;;;;;9.90;5.82;;;;;;;;;;6209885;23;20167;-91
2021/08/21 03:43:19;;;;;;;9.20;5.75;;;;;;;;;;6209454;23;20190;-90
2021/08/21 03:46:24;;;;;;;9.30;5.43;;;;;;;;;;6208271;23;20168;-90
2021/08/21 03:49:31;;;;;;;13.90;6.28;;;;;;;;;;6196023;23;20152;-90
2021/08/21 03:52:36;;;;;;;12.20;6.05;;;;;;;;;;6178880;23;20166;-88
2021/08/21 03:55:42;;;;;;;12.75;6.15;;;;;;;;;;6179076;23;20168;-89
2021/08/21 03:58:48;;;;;;;17.27;5.82;;;;;;;;;;6177495;23;20199;-92
2021/08/21 04:01:56;;;;;;;9.88;6.10;;;;;;;;;;6176491;23;20172;-89
2021/08/21 04:05:09;;;;;;;10.35;6.40;;;;;;;;;;6177334;23;20592;-90
2021/08/21 04:08:14;;;;;;;9.75;5.70;;;;;;;;;;6175927;23;20167;-90
2021/08/21 04:11:19;;;;;;;12.57;5.35;;;;;;;;;;6176219;23;20268;-91
2021/08/21 04:14:41;;;;;;;15.18;5.88;;;;;;;;;;6178364;23;20172;-91
2021/08/21 04:17:47;;;;;;;9.68;5.90;;;;;;;;;;6181482;23;20191;-92
2021/08/21 04:20:55;;;;;;;12.10;6.22;;;;;;;;;;6179473;23;20501;-88
2021/08/21 04:24:01;;;;;;;17.83;6.15;;;;;;;;;;6180523;23;20211;-90
2021/08/21 04:27:06;;;;;;;8.55;5.57;;;;;;;;;;6180727;23;20500;-89
2021/08/21 04:30:14;;;;;;;11.82;6.15;;;;;;;;;;6177843;23;20172;-90
2021/08/21 04:33:19;;;;;;;11.70;6.57;;;;;;;;;;6179679;23;20188;-91
2021/08/21 04:36:26;;;;;;;10.25;6.70;;;;;;;;;;6178673;23;20192;-90
2021/08/21 04:39:33;;;;;;;13.77;5.68;;;;;;;;;;6176914;23;20155;-90
2021/08/21 04:42:38;;;;;;;13.57;5.82;;;;;;;;;;6179880;23;20229;-90
2021/08/21 04:45:44;;;;;;;9.57;5.50;;;;;;;;;;6179811;23;20164;-91
2021/08/21 04:48:50;;;;;;;9.27;6.05;;;;;;;;;;6203393;23;20326;-88
2021/08/21 04:51:57;;;;;;;18.15;7.20;;;;;;;;;;6208733;22;20163;-91
2021/08/21 04:55:02;;;;;;;11.90;7.07;;;;;;;;;;6206186;23;20166;-89
2021/08/21 04:58:09;;;;;;;16.70;6.78;;;;;;;;;;6206152;23;20210;-90
2021/08/21 05:01:13;;;;;;;11.20;6.68;;;;;;;;;;6206214;23;20243;-90
2021/08/21 05:04:20;;;;;;;12.75;6.90;;;;;;;;;;6205928;23;20167;-91
2021/08/21 05:07:29;;;;;;;13.73;7.57;;;;;;;;;;6207395;22;20175;-91
2021/08/21 05:10:34;;;;;;;11.05;6.75;;;;;;;;;;6208559;23;20167;-90
2021/08/21 05:13:41;;;;;;;14.23;7.10;;;;;;;;;;6206938;23;20237;-91
2021/08/21 05:16:47;;;;;;;16.17;7.03;;;;;;;;;;6209221;23;20167;-90
2021/08/21 05:20:16;;;;;;;10.70;6.65;;;;;;;;;;6226448;23;20168;-89
2021/08/21 05:23:37;;;;;;;12.85;6.60;;;;;;;;;;6209551;23;20172;-91
2021/08/21 05:26:42;;;;;;;13.93;7.38;;;;;;;;;;6207724;23;20162;-91
2021/08/21 05:29:47;;;;;;;11.18;7.15;;;;;;;;;;6206930;23;20160;-91
2021/08/21 05:32:53;;;;;;;10.27;5.95;;;;;;;;;;6207856;23;20166;-90
2021/08/21 05:35:58;;;;;;;11.63;5.75;;;;;;;;;;6207118;23;20283;-90
2021/08/21 05:39:06;;;;;;;10.15;6.00;;;;;;;;;;6206983;23;20322;-91
2021/08/21 05:42:12;;;;;;;9.88;5.32;;;;;;;;;;6207154;23;20636;-89
2021/08/21 05:45:17;;;;;;;12.52;5.35;;;;;;;;;;6209828;23;20210;-91
2021/08/21 05:48:22;;;;;;;6.90;4.95;;;;;;;;;;6206623;23;20752;-89
2021/08/21 05:51:30;;;;;;;10.02;5.13;;;;;;;;;;6208751;23;20171;-89
2021/08/21 05:54:36;;;;;;;13.07;5.72;;;;;;;;;;6207928;23;20171;-89
2021/08/21 05:57:49;;;;;;;6.47;4.22;;;;;;;;;;6208017;23;20187;-90
2021/08/21 06:00:54;;;;;;;8.63;4.43;;;;;;;;;;6208021;23;20541;-90
2021/08/21 06:03:58;;;;;;;7.63;4.43;;;;;;;;;;6206689;23;20618;-92
2021/08/21 06:07:05;;;;;;;8.10;4.13;;;;;;;;;;6208671;23;20607;-89
2021/08/21 06:10:12;;;;;;;5.28;3.47;;;;;;;;;;6208330;23;20509;-91
2021/08/21 06:13:18;;;;;;;6.93;3.85;;;;;;;;;;6207935;23;20162;-90
2021/08/21 06:16:23;;;;;;;5.90;3.47;;;;;;;;;;6208241;23;20171;-91
2021/08/21 06:19:29;;;;;;;6.18;4.13;;;;;;;;;;6190605;23;20179;-89
2021/08/21 06:22:34;;;;;;;5.30;3.40;;;;;;;;;;6206816;23;20195;-90
2021/08/21 06:25:40;;;;;;;7.38;4.20;;;;;;;;;;6209424;23;20159;-91
2021/08/21 06:28:46;;;;;;;6.95;3.88;;;;;;;;;;6207616;23;20184;-89
2021/08/21 06:31:50;;;;;;;5.65;3.45;;;;;;;;;;6206992;23;20222;-91
2021/08/21 06:34:56;;;;;;;5.60;3.50;;;;;;;;;;6209480;23;20170;-92
2021/08/21 06:38:01;;;;;;;6.25;3.30;;;;;;;;;;6206052;23;20191;-89
2021/08/21 06:41:07;;;;;;;6.15;3.55;;;;;;;;;;6205616;23;20225;-91
2021/08/21 06:44:12;;;;;;;6.43;3.10;;;;;;;;;;6206234;23;20240;-90
2021/08/21 06:47:21;;;;;;;4.82;3.17;;;;;;;;;;6207717;23;20199;-91
2021/08/21 06:50:26;;;;;;;8.70;3.53;;;;;;;;;;6211085;23;20164;-91
2021/08/21 06:53:31;;;;;;;5.90;3.30;;;;;;;;;;6210384;23;20171;-91
2021/08/21 06:56:37;;;;;;;5.20;3.03;;;;;;;;;;6209733;23;20643;-90
2021/08/21 06:59:43;;;;;;;4.35;3.15;;;;;;;;;;6210353;23;20171;-90
2021/08/21 07:02:51;;;;;;;8.05;3.15;;;;;;;;;;6210632;23;20663;-91
2021/08/21 07:05:56;;;;;;;7.47;3.40;;;;;;;;;;6210137;23;20171;-91
2021/08/21 07:09:01;;;;;;;7.47;3.50;;;;;;;;;;6209576;23;20179;-90
2021/08/21 07:12:08;;;;;;;7.43;3.30;;;;;;;;;;6209170;23;20584;-89
2021/08/21 07:15:13;;;;;;;4.05;2.85;;;;;;;;;;6209328;23;20170;-92
2021/08/21 07:18:20;;;;;;;12.18;6.05;;;;;;;;;;6208895;23;20194;-90
2021/08/21 07:21:25;;;;;;;4.88;2.70;;;;;;;;;;6209898;23;20175;-91
2021/08/21 07:24:30;;;;;;;7.85;3.10;;;;;;;;;;6212064;23;20798;-90
2021/08/21 07:27:36;;;;;;;5.75;3.10;;;;;;;;;;6212113;23;20182;-91
2021/08/21 07:30:41;;;;;;;6.05;3.03;;;;;;;;;;6210033;23;20198;-91
2021/08/21 07:33:46;;;;;;;5.25;2.97;;;;;;;;;;6210781;23;20498;-91
2021/08/21 07:36:51;;;;;;;6.00;3.25;;;;;;;;;;6209868;23;20179;-90
2021/08/21 07:39:58;;;;;;;5.55;3.10;;;;;;;;;;6212302;23;20237;-91
2021/08/21 07:43:05;;;;;;;5.70;3.30;;;;;;;;;;6211520;23;20168;-93
2021/08/21 07:46:10;;;;;;;5.75;3.50;;;;;;;;;;6210087;23;20171;-90
2021/08/21 07:49:15;;;;;;;5.65;2.67;;;;;;;;;;6180015;23;20163;-92
2021/08/21 07:52:21;;;;;;;22.00;11.90;;;;;;;;;;6176144;23;20232;-92
2021/08/21 08:28:01;;;;;;;6.43;2.70;;;;;;;;;;6128635;23;20211;-89
2021/08/21 08:31:06;;;;;;;4.90;2.97;;;;;;;;;;6211738;23;20292;-92
2021/08/21 08:34:16;;;;;;;7.43;3.00;;;;;;;;;;6157753;23;20184;-91
2021/08/21 08:37:22;;;;;;;3.70;2.95;;;;;;;;;;6180269;23;20199;-90
2021/08/21 08:40:27;;;;;;;5.80;3.47;;;;;;;;;;6178352;23;20294;-92
2021/08/21 08:43:33;;;;;;;7.97;3.55;;;;;;;;;;6177218;23;20175;-91
2021/08/21 08:46:38;;;;;;;5.10;2.72;;;;;;;;;;6177416;23;20191;-92
2021/08/21 08:49:46;;;;;;;3.40;2.67;;;;;;;;;;6177558;23;20171;-91
2021/08/21 08:52:51;;;;;;;3.78;2.60;;;;;;;;;;6175974;23;20174;-92
2021/08/21 08:55:57;;;;;;;4.75;2.70;;;;;;;;;;6176225;23;20158;-89
2021/08/21 08:59:03;;;;;;;4.25;2.30;;;;;;;;;;6178946;23;20277;-92
2021/08/21 09:02:08;;;;;;;3.95;2.78;;;;;;;;;;6176310;23;20182;-91
2021/08/21 09:05:14;;;;;;;5.13;2.70;;;;;;;;;;6176002;23;20500;-91
2021/08/21 09:08:23;;;;;;;5.07;2.63;;;;;;;;;;6175445;23;20182;-92
2021/08/21 09:11:29;;;;;;;4.15;2.53;;;;;;;;;;6176613;23;20167;-91
2021/08/21 09:14:35;;;;;;;4.63;2.92;;;;;;;;;;6174640;23;20241;-91
2021/08/21 09:17:40;;;;;;;3.80;2.50;;;;;;;;;;6176702;23;20312;-90
2021/08/21 09:20:56;;;;;;;7.95;2.58;;;;;;;;;;6179184;23;20221;-89
2021/08/21 09:24:01;;;;;;;3.85;2.80;;;;;;;;;;6195984;23;20152;-91
2021/08/21 09:27:19;;;;;;;5.20;2.53;;;;;;;;;;6175682;23;20175;-90
2021/08/21 09:30:28;;;;;;;5.93;3.22;;;;;;;;;;6178168;23;20179;-90
2021/08/21 09:36:54;;;;;;;3.00;2.53;;;;;;;;;;6177557;23;20171;-90
2021/08/21 09:40:04;;;;;;;4.25;3.00;;;;;;;;;;6177199;23;20278;-90
2021/08/21 09:43:19;;;;;;;6.40;2.70;;;;;;;;;;6177272;23;20232;-91
2021/08/21 09:46:28;;;;;;;2.95;2.50;;;;;;;;;;6180606;23;20211;-90
2021/08/21 09:49:33;;;;;;;4.75;2.72;;;;;;;;;;6176963;23;20518;-90
2021/08/21 09:52:38;;;;;;;3.65;2.70;;;;;;;;;;6175728;23;20167;-90
2021/08/21 09:55:43;;;;;;;6.82;2.58;;;;;;;;;;6177154;23;20626;-90
2021/08/21 09:58:53;;;;;;;7.03;3.15;;;;;;;;;;6180124;23;20211;-89
2021/08/21 10:02:00;;;;;;;7.45;3.03;;;;;;;;;;6177058;23;20247;-89
2021/08/21 10:05:05;;;;;;;6.53;3.20;;;;;;;;;;6176074;23;20167;-90
2021/08/21 10:08:15;;;;;;;7.63;2.95;;;;;;;;;;6177103;23;20183;-91
2021/08/21 10:11:20;;;;;;;5.65;3.17;;;;;;;;;;6177148;23;20191;-91
2021/08/21 10:14:25;;;;;;;6.10;3.40;;;;;;;;;;6177033;23;20156;-91
2021/08/21 10:17:32;;;;;;;6.07;3.13;;;;;;;;;;6175148;23;20183;-91
2021/08/21 10:20:37;;;;;;;8.18;3.20;;;;;;;;;;6177498;23;20163;-92
2021/08/21 10:23:44;;;;;;;5.82;3.50;;;;;;;;;;6177442;23;20174;-92
2021/08/21 10:26:55;;;;;;;6.43;3.40;;;;;;;;;;6177692;23;20210;-93
2021/08/21 10:30:04;;;;;;;6.75;4.75;;;;;;;;;;6177683;23;20576;-91
2021/08/21 10:33:11;;;;;;;7.55;3.50;;;;;;;;;;6180067;23;20599;-91
2021/08/21 10:36:36;;;;;;;5.95;3.22;;;;;;;;;;6178877;23;20561;-92
2021/08/21 10:39:40;;;;;;;9.10;4.15;;;;;;;;;;6178789;23;20742;-92
2021/08/21 10:42:53;;;;;;;5.47;3.50;;;;;;;;;;6178016;23;20175;-92
2021/08/21 10:45:58;;;;;;;4.10;3.30;;;;;;;;;;6179056;23;20151;-91
2021/08/21 10:49:06;;;;;;;4.40;2.80;;;;;;;;;;6177803;23;20240;-91
2021/08/21 10:52:30;;;;;;;5.45;2.90;;;;;;;;;;6178013;23;20492;-92
2021/08/21 10:55:39;;;;;;;5.85;2.67;;;;;;;;;;6177434;23;20167;-92
2021/08/21 10:58:56;;;;;;;4.38;3.05;;;;;;;;;;6177272;23;20191;-90
2021/08/21 11:02:16;;;;;;;4.95;2.97;;;;;;;;;;6178657;23;20218;-92
2021/08/21 11:05:41;;;;;;;6.38;3.72;;;;;;;;;;6179445;23;20171;-91
2021/08/21 11:09:07;;;;;;;3.70;2.80;;;;;;;;;;6179030;23;20304;-90
2021/08/21 11:12:31;;;;;;;5.30;2.95;;;;;;;;;;6178123;23;20163;-90
2021/08/21 11:15:36;;;;;;;5.57;2.60;;;;;;;;;;6175912;23;20183;-91
2021/08/21 11:18:45;;;;;;;4.88;2.90;;;;;;;;;;6177588;23;20250;-92
2021/08/21 11:21:54;;;;;;;5.88;3.03;;;;;;;;;;6180317;23;20171;-92
2021/08/21 11:25:08;;;;;;;4.57;2.65;;;;;;;;;;6177448;23;20189;-91
2021/08/21 11:28:21;;;;;;;4.97;2.35;;;;;;;;;;6178509;23;20199;-91
2021/08/21 11:31:28;;;;;;;5.82;2.47;;;;;;;;;;6176899;23;20198;-93
2021/08/21 11:34:37;;;;;;;5.97;2.60;;;;;;;;;;6176439;23;20150;-92
2021/08/21 11:37:48;;;;;;;4.82;2.70;;;;;;;;;;6177467;23;20175;-91
2021/08/21 11:40:55;;;;;;;3.00;2.20;;;;;;;;;;6178578;23;20175;-91
2021/08/21 16:18:21;;;;;;;6.28;4.00;;;;;;;;;;6097389;23;20201;-89
2021/08/21 16:21:26;;;;;;;4.80;2.90;;;;;;;;;;6117837;23;20228;-87
2021/08/21 16:24:31;;;;;;;6.47;3.20;;;;;;;;;;6118119;23;20165;-90
2021/08/21 16:27:39;;;;;;;4.07;2.63;;;;;;;;;;6121855;23;20197;-90
2021/08/21 16:34:04;;;;;;;8.48;3.22;;;;;;;;;;6120688;23;20165;-90
2021/08/21 16:37:09;;;;;;;4.55;2.33;;;;;;;;;;6120114;23;20231;-91
2021/08/21 16:40:15;;;;;;;11.77;2.80;;;;;;;;;;6120081;23;20196;-90
2021/08/21 16:43:21;;;;;;;7.80;2.90;;;;;;;;;;6117663;23;20169;-91
2021/08/21 16:46:26;;;;;;;4.22;2.65;;;;;;;;;;6118898;23;20177;-91
2021/08/21 16:49:32;;;;;;;3.90;2.90;;;;;;;;;;6117695;23;20169;-90
2021/08/21 16:52:36;;;;;;;4.38;2.80;;;;;;;;;;6116203;23;20178;-90
2021/08/21 16:55:41;;;;;;;4.95;2.78;;;;;;;;;;6117296;23;20180;-91
2021/08/21 16:58:47;;;;;;;4.90;2.95;;;;;;;;;;6116859;23;20173;-91
2021/08/21 17:05:13;;;;;;;7.32;3.53;;;;;;;;;;6122413;23;20181;-90
2021/08/21 17:08:17;;;;;;;5.78;2.90;;;;;;;;;;6118777;23;20197;-92
2021/08/21 17:11:22;;;;;;;4.18;2.90;;;;;;;;;;6120262;23;20181;-91
2021/08/21 17:14:27;;;;;;;5.72;3.67;;;;;;;;;;6119759;23;20253;-89
2021/08/21 17:17:32;;;;;;;6.82;3.20;;;;;;;;;;6117942;23;20269;-92
2021/08/21 17:20:49;;;;;;;8.27;3.97;;;;;;;;;;6137165;23;20668;-91
2021/08/21 17:23:55;;;;;;;7.07;3.20;;;;;;;;;;6135511;23;20174;-89
2021/08/21 17:27:00;;;;;;;6.57;3.30;;;;;;;;;;6136692;23;20173;-89
2021/08/21 17:30:05;;;;;;;9.40;3.65;;;;;;;;;;6137810;23;20165;-89
2021/08/21 17:33:10;;;;;;;5.13;3.45;;;;;;;;;;6134014;23;20229;-90
2021/08/21 17:36:16;;;;;;;8.18;4.05;;;;;;;;;;6134112;23;20508;-89
2021/08/21 17:39:22;;;;;;;8.43;3.90;;;;;;;;;;6139272;23;20201;-90
2021/08/21 17:42:27;;;;;;;6.53;3.55;;;;;;;;;;6135526;23;20560;-90
2021/08/21 17:45:32;;;;;;;7.45;3.63;;;;;;;;;;6136518;23;20164;-91
2021/08/21 17:48:38;;;;;;;9.68;3.80;;;;;;;;;;6144459;23;20168;-91
2021/08/21 17:51:48;;;;;;;19.63;12.52;;;;;;;;;;6139897;23;20556;-92
2021/08/21 17:54:53;;;;;;;8.02;3.85;;;;;;;;;;6140027;23;20270;-89
2021/08/21 17:58:02;;;;;;;8.07;3.80;;;;;;;;;;6140267;23;20238;-90
2021/08/21 18:01:07;;;;;;;6.45;3.90;;;;;;;;;;6136022;23;20193;-89
2021/08/21 18:04:12;;;;;;;5.55;3.40;;;;;;;;;;6136335;23;20213;-89
2021/08/21 18:07:20;;;;;;;9.02;4.30;;;;;;;;;;6134676;23;20177;-90
2021/08/21 18:10:25;;;;;;;6.47;4.10;;;;;;;;;;6134803;23;20176;-89
2021/08/21 18:13:30;;;;;;;7.82;3.78;;;;;;;;;;6134663;23;20625;-90
2021/08/21 18:16:35;;;;;;;6.25;3.88;;;;;;;;;;6136475;23;20190;-90
2021/08/21 18:19:41;;;;;;;6.80;3.72;;;;;;;;;;6136218;23;20208;-91
2021/08/21 18:22:57;;;;;;;10.05;4.28;;;;;;;;;;6135323;23;20788;-91
2021/08/21 18:26:02;;;;;;;7.20;4.20;;;;;;;;;;6135271;23;20242;-91
2021/08/21 18:29:07;;;;;;;5.65;3.50;;;;;;;;;;6133989;23;20266;-90
2021/08/21 18:32:13;;;;;;;8.60;3.75;;;;;;;;;;6132411;23;20169;-91
2021/08/21 18:35:18;;;;;;;7.13;4.03;;;;;;;;;;6134694;23;20251;-91
2021/08/21 18:38:25;;;;;;;7.05;4.05;;;;;;;;;;6137468;23;20193;-93
2021/08/21 18:41:30;;;;;;;8.73;4.50;;;;;;;;;;6134475;23;20193;-91
2021/08/21 18:44:35;;;;;;;9.45;5.47;;;;;;;;;;6137470;23;20206;-90
2021/08/21 18:47:41;;;;;;;11.45;5.03;;;;;;;;;;6136614;23;20220;-91
2021/08/21 18:50:47;;;;;;;10.15;4.68;;;;;;;;;;6138692;23;20185;-91
2021/08/21 18:53:56;;;;;;;11.57;4.57;;;;;;;;;;6141242;23;20194;-91
2021/08/21 18:57:01;;;;;;;8.35;5.60;;;;;;;;;;6138948;23;20185;-89
2021/08/21 19:00:06;;;;;;;13.75;5.38;;;;;;;;;;6134378;23;20314;-90
2021/08/21 19:03:11;;;;;;;9.57;4.88;;;;;;;;;;6137339;23;20248;-90
2021/08/21 19:06:17;;;;;;;9.57;4.65;;;;;;;;;;6135528;23;20173;-89
2021/08/21 19:09:23;;;;;;;11.35;5.05;;;;;;;;;;6133967;23;20177;-91
2021/08/21 19:12:32;;;;;;;7.95;4.50;;;;;;;;;;6135254;23;20196;-89
2021/08/21 19:15:38;;;;;;;8.65;5.50;;;;;;;;;;6134860;23;20637;-88
2021/08/21 19:18:43;;;;;;;13.88;5.40;;;;;;;;;;6134420;23;20200;-88
2021/08/21 19:21:49;;;;;;;11.63;4.60;;;;;;;;;;6117314;23;20197;-87
2021/08/21 19:24:56;;;;;;;10.30;4.88;;;;;;;;;;6136624;23;20177;-89
2021/08/21 19:28:03;;;;;;;14.63;4.95;;;;;;;;;;6119537;23;20637;-90
2021/08/21 19:31:08;;;;;;;10.75;6.75;;;;;;;;;;6121564;23;20161;-89
2021/08/21 19:34:13;;;;;;;10.05;5.50;;;;;;;;;;6122202;23;20194;-90
2021/08/21 19:37:18;;;;;;;13.48;4.93;;;;;;;;;;6120313;23;20347;-89
2021/08/21 19:40:25;;;;;;;9.38;4.93;;;;;;;;;;6119120;23;20225;-88
2021/08/21 19:43:30;;;;;;;7.80;4.35;;;;;;;;;;6120119;23;20188;-89
2021/08/21 19:46:35;;;;;;;9.65;4.50;;;;;;;;;;6117960;23;20293;-88
2021/08/21 19:49:40;;;;;;;8.77;5.28;;;;;;;;;;6119084;23;20161;-90
2021/08/21 19:52:45;;;;;;;7.07;4.60;;;;;;;;;;6119207;23;20253;-89
2021/08/21 19:55:52;;;;;;;8.68;4.55;;;;;;;;;;6118567;23;20244;-91
2021/08/21 19:58:57;;;;;;;14.32;4.72;;;;;;;;;;6121257;23;20168;-90
2021/08/21 20:02:02;;;;;;;9.15;4.93;;;;;;;;;;6119177;23;20171;-89
2021/08/21 20:05:08;;;;;;;8.57;4.75;;;;;;;;;;6117593;23;20165;-89
2021/08/21 20:08:13;;;;;;;9.50;5.03;;;;;;;;;;6118083;23;20564;-89
2021/08/21 20:11:19;;;;;;;10.02;5.22;;;;;;;;;;6119260;23;20170;-90
2021/08/21 20:14:24;;;;;;;9.10;5.03;;;;;;;;;;6120877;23;20172;-89
2021/08/21 20:17:29;;;;;;;14.68;5.35;;;;;;;;;;6119551;23;20173;-90
2021/08/21 20:20:34;;;;;;;14.38;5.78;;;;;;;;;;6133942;23;20213;-90
2021/08/21 20:23:40;;;;;;;12.15;6.00;;;;;;;;;;6136354;23;20181;-91
2021/08/21 20:26:46;;;;;;;9.82;5.43;;;;;;;;;;6137098;23;20166;-91
2021/08/21 20:29:52;;;;;;;10.88;5.70;;;;;;;;;;6135257;23;20168;-90
2021/08/21 20:32:56;;;;;;;10.50;5.50;;;;;;;;;;6135885;23;20197;-91
2021/08/21 20:36:01;;;;;;;7.70;4.93;;;;;;;;;;6136228;23;20176;-91
2021/08/21 20:39:06;;;;;;;9.45;5.32;;;;;;;;;;6142125;23;20532;-91
2021/08/21 20:42:13;;;;;;;9.68;5.40;;;;;;;;;;6135243;23;20669;-92
2021/08/21 20:45:18;;;;;;;10.77;5.03;;;;;;;;;;6136097;23;20176;-90
2021/08/21 20:48:23;;;;;;;9.20;5.75;;;;;;;;;;6138068;23;20173;-90
2021/08/21 20:51:28;;;;;;;9.38;5.70;;;;;;;;;;6138973;23;20194;-91
2021/08/21 20:54:38;;;;;;;10.25;5.60;;;;;;;;;;6139220;23;20173;-92
2021/08/21 20:57:47;;;;;;;10.68;5.80;;;;;;;;;;6137083;23;20177;-92
2021/08/21 21:00:54;;;;;;;9.10;5.55;;;;;;;;;;6134994;23;20177;-90
2021/08/21 21:04:00;;;;;;;8.02;5.60;;;;;;;;;;6136357;23;20177;-90
2021/08/21 21:07:07;;;;;;;11.98;5.95;;;;;;;;;;6136519;23;20176;-91
2021/08/21 21:10:12;;;;;;;11.93;5.97;;;;;;;;;;6137432;23;20176;-91
2021/08/21 21:13:19;;;;;;;9.35;5.60;;;;;;;;;;6135657;23;20177;-90
2021/08/21 21:16:24;;;;;;;8.63;5.13;;;;;;;;;;6135135;23;20173;-91
2021/08/21 21:19:30;;;;;;;10.82;5.75;;;;;;;;;;6137830;23;20209;-92
2021/08/21 21:22:36;;;;;;;9.25;5.60;;;;;;;;;;6137556;23;20152;-90
2021/08/21 21:25:42;;;;;;;11.43;5.45;;;;;;;;;;6136043;23;20177;-92
2021/08/21 21:28:48;;;;;;;9.88;5.43;;;;;;;;;;6136300;23;20177;-91
2021/08/21 21:31:53;;;;;;;11.52;5.20;;;;;;;;;;6135727;23;20164;-90
2021/08/21 21:34:59;;;;;;;10.00;5.80;;;;;;;;;;6134576;23;20181;-91
2021/08/21 21:38:04;;;;;;;7.90;5.53;;;;;;;;;;6135607;23;20214;-92
2021/08/21 21:41:09;;;;;;;7.75;5.05;;;;;;;;;;6135685;23;20644;-91
2021/08/21 21:44:16;;;;;;;7.63;5.28;;;;;;;;;;6135424;23;20173;-92
2021/08/21 21:47:21;;;;;;;9.77;5.50;;;;;;;;;;6133762;23;20173;-90
2021/08/21 21:50:26;;;;;;;15.50;5.32;;;;;;;;;;6133426;23;20272;-91
2021/08/21 21:53:33;;;;;;;13.52;5.60;;;;;;;;;;6135447;23;20157;-91
2021/08/21 21:56:38;;;;;;;13.95;5.70;;;;;;;;;;6134725;23;20172;-90
2021/08/21 21:59:45;;;;;;;9.43;5.88;;;;;;;;;;6134541;23;20290;-91
2021/08/21 22:02:54;;;;;;;9.18;5.57;;;;;;;;;;6134785;23;20181;-90
2021/08/21 22:06:00;;;;;;;8.50;5.60;;;;;;;;;;6135199;23;20177;-90
2021/08/21 22:09:05;;;;;;;10.32;5.32;;;;;;;;;;6135945;23;20185;-89
2021/08/21 22:12:12;;;;;;;8.30;5.18;;;;;;;;;;6137904;23;20176;-92
2021/08/21 22:15:18;;;;;;;12.52;5.75;;;;;;;;;;6138838;23;20173;-90
2021/08/21 22:18:23;;;;;;;11.38;5.70;;;;;;;;;;6139401;23;20169;-90
2021/08/21 22:21:28;;;;;;;13.13;5.70;;;;;;;;;;6122348;23;20197;-90
2021/08/21 22:24:33;;;;;;;11.75;6.05;;;;;;;;;;6123032;23;20177;-90
2021/08/21 22:27:38;;;;;;;8.50;5.90;;;;;;;;;;6122997;23;20173;-91
2021/08/21 22:30:45;;;;;;;8.50;5.70;;;;;;;;;;6122929;23;20620;-91
2021/08/21 22:33:52;;;;;;;11.30;5.82;;;;;;;;;;6122560;23;20256;-90
2021/08/21 22:36:57;;;;;;;9.23;5.60;;;;;;;;;;6124289;23;20169;-90
2021/08/21 22:40:03;;;;;;;12.38;6.20;;;;;;;;;;6122290;23;20173;-92
2021/08/21 22:43:08;;;;;;;18.40;5.65;;;;;;;;;;6123226;23;20672;-90
2021/08/21 22:46:14;;;;;;;11.63;5.90;;;;;;;;;;6124590;23;20502;-89
2021/08/21 22:49:19;;;;;;;15.10;6.10;;;;;;;;;;6125002;23;20504;-91
2021/08/21 22:52:24;;;;;;;12.25;5.60;;;;;;;;;;6122485;23;20181;-90
2021/08/21 22:55:30;;;;;;;9.77;5.72;;;;;;;;;;6122970;23;20168;-91
2021/08/21 22:58:35;;;;;;;12.35;5.85;;;;;;;;;;6141221;23;20213;-89
2021/08/21 23:01:44;;;;;;;8.57;5.45;;;;;;;;;;6123239;23;20665;-87
2021/08/21 23:04:49;;;;;;;10.90;5.85;;;;;;;;;;6123879;23;20173;-90
2021/08/21 23:07:54;;;;;;;11.05;5.63;;;;;;;;;;6123663;23;20620;-89
2021/08/21 23:11:01;;;;;;;9.18;5.38;;;;;;;;;;6123570;23;20188;-91
2021/08/21 23:14:07;;;;;;;11.55;5.82;;;;;;;;;;6122891;23;20247;-88
2021/08/21 23:17:13;;;;;;;10.52;5.45;;;;;;;;;;6123139;23;20181;-89
2021/08/21 23:20:18;;;;;;;9.20;5.85;;;;;;;;;;6136118;23;20212;-89
2021/08/21 23:23:34;;;;;;;9.70;5.75;;;;;;;;;;6140566;23;20277;-90
2021/08/21 23:26:39;;;;;;;10.60;5.72;;;;;;;;;;6141107;23;20502;-90
2021/08/21 23:29:44;;;;;;;8.57;5.90;;;;;;;;;;6138524;23;20674;-90
2021/08/21 23:32:55;;;;;;;11.02;5.72;;;;;;;;;;6139604;23;20173;-91
2021/08/21 23:36:00;;;;;;;9.07;5.13;;;;;;;;;;6141813;23;20173;-88
2021/08/21 23:39:05;;;;;;;9.15;5.57;;;;;;;;;;6145322;23;20480;-91
2021/08/21 23:42:12;;;;;;;13.32;6.10;;;;;;;;;;6142712;23;20217;-89
2021/08/21 23:45:17;;;;;;;16.20;6.22;;;;;;;;;;6143095;23;20181;-87
2021/08/21 23:48:25;;;;;;;9.35;5.50;;;;;;;;;;6142625;23;20153;-90
2021/08/21 23:51:30;;;;;;;12.23;5.97;;;;;;;;;;6142532;23;20169;-89